Time,TemperatureF,DewpointF,PressureIn,WindDirection,WindDirectionDegrees,WindSpeedMPH,WindSpeedGustMPH,Humidity,HourlyPrecipIn,Conditions,Clouds,dailyrainin,SoftwareType,DateUTC
2013-05-23 00:05:00,63.5,59.9,29.74,SW,214,6.0,7.0,88,0.00,,,0.00,Wunderground v.1.15,2013-05-23 04:05:00,
2013-05-23 00:10:00,63.5,59.6,29.74,SW,220,7.0,7.0,87,0.00,,,0.00,Wunderground v.1.15,2013-05-23 04:10:00,
2013-05-23 00:15:00,63.4,59.5,29.74,SW,215,6.0,6.0,87,0.00,,,0.00,Wunderground v.1.15,2013-05-23 04:15:00,
2013-05-23 00:20:00,63.3,59.4,29.74,SW,215,6.0,6.0,87,0.00,,,0.00,Wunderground v.1.15,2013-05-23 04:20:00,
2013-05-23 00:25:00,63.1,59.5,29.74,SW,217,6.0,6.0,88,0.00,,,0.00,Wunderground v.1.15,2013-05-23 04:25:00,
2013-05-23 00:30:00,63.0,59.4,29.74,SW,214,6.0,7.0,88,0.00,,,0.00,Wunderground v.1.15,2013-05-23 04:30:00,
2013-05-23 00:35:00,62.9,59.6,29.74,SW,216,6.0,6.0,89,0.00,,,0.00,Wunderground v.1.15,2013-05-23 04:35:00,
2013-05-23 00:45:00,62.7,59.4,29.74,SW,219,5.0,5.0,89,0.00,,,0.00,Wunderground v.1.15,2013-05-23 04:45:00,
2013-05-23 00:50:00,62.7,59.4,29.74,SSW,213,5.0,5.0,89,0.00,,,0.00,Wunderground v.1.15,2013-05-23 04:50:00,
2013-05-23 00:55:00,62.6,59.3,29.74,SW,216,5.0,6.0,89,0.00,,,0.00,Wunderground v.1.15,2013-05-23 04:55:00,
2013-05-23 01:05:00,62.2,58.9,29.74,SW,217,5.0,7.0,89,0.00,,,0.00,Wunderground v.1.15,2013-05-23 05:05:00,
2013-05-23 01:10:00,62.0,58.7,29.74,SW,217,5.0,5.0,89,0.00,,,0.00,Wunderground v.1.15,2013-05-23 05:10:00,
2013-05-23 01:15:00,61.9,58.6,29.74,SW,217,5.0,5.0,89,0.00,,,0.00,Wunderground v.1.15,2013-05-23 05:15:00,
2013-05-23 01:25:00,61.6,58.3,29.74,SSW,209,5.0,6.0,89,0.00,,,0.00,Wunderground v.1.15,2013-05-23 05:25:00,
2013-05-23 01:30:00,61.4,58.1,29.74,SSW,201,5.0,5.0,89,0.00,,,0.00,Wunderground v.1.15,2013-05-23 05:30:00,
2013-05-23 01:35:00,61.2,58.2,29.74,SSW,201,5.0,5.0,90,0.00,,,0.00,Wunderground v.1.15,2013-05-23 05:35:00,
2013-05-23 01:45:00,60.9,57.9,29.74,SSW,201,4.0,4.0,90,0.00,,,0.00,Wunderground v.1.15,2013-05-23 05:45:00,
2013-05-23 01:50:00,60.9,58.3,29.74,SSW,201,4.0,4.0,91,0.00,,,0.00,Wunderground v.1.15,2013-05-23 05:50:00,
2013-05-23 01:55:00,60.8,57.8,29.75,SSW,201,4.0,4.0,90,0.00,,,0.00,Wunderground v.1.15,2013-05-23 05:55:00,
2013-05-23 02:05:00,60.9,57.9,29.74,SSW,201,4.0,4.0,90,0.00,,,0.00,Wunderground v.1.15,2013-05-23 06:05:00,
2013-05-23 02:10:00,60.8,57.8,29.74,SSW,201,4.0,4.0,90,0.00,,,0.00,Wunderground v.1.15,2013-05-23 06:10:00,
2013-05-23 02:15:00,60.6,57.7,29.74,SSW,201,3.0,3.0,90,0.00,,,0.00,Wunderground v.1.15,2013-05-23 06:15:00,
2013-05-23 02:25:00,60.1,57.5,29.75,SSW,201,3.0,5.0,91,0.00,,,0.00,Wunderground v.1.15,2013-05-23 06:25:00,
2013-05-23 02:30:00,60.3,58.0,29.75,SSW,201,4.0,5.0,92,0.00,,,0.00,Wunderground v.1.15,2013-05-23 06:30:00,
2013-05-23 02:35:00,60.6,58.0,29.75,SSW,201,4.0,5.0,91,0.00,,,0.00,Wunderground v.1.15,2013-05-23 06:35:00,
2013-05-23 02:40:00,60.8,58.2,29.74,SSW,201,4.0,5.0,91,0.00,,,0.00,Wunderground v.1.15,2013-05-23 06:40:00,
2013-05-23 02:50:00,61.2,58.6,29.75,SW,214,4.0,5.0,91,0.00,,,0.00,Wunderground v.1.15,2013-05-23 06:50:00,
2013-05-23 02:55:00,61.4,58.4,29.75,SW,225,5.0,7.0,90,0.00,,,0.00,Wunderground v.1.15,2013-05-23 06:55:00,
2013-05-23 03:05:00,61.8,58.8,29.74,SW,232,5.0,5.0,90,0.00,,,0.00,Wunderground v.1.15,2013-05-23 07:05:00,
2013-05-23 03:10:00,62.0,58.7,29.74,SW,233,5.0,5.0,89,0.00,,,0.00,Wunderground v.1.15,2013-05-23 07:10:00,
2013-05-23 03:15:00,62.0,58.7,29.74,WSW,237,6.0,6.0,89,0.00,,,0.00,Wunderground v.1.15,2013-05-23 07:15:00,
2013-05-23 03:25:00,62.1,58.8,29.74,SW,233,6.0,7.0,89,0.00,,,0.00,Wunderground v.1.15,2013-05-23 07:25:00,
2013-05-23 03:30:00,62.0,58.7,29.74,WSW,238,6.0,7.0,89,0.00,,,0.00,Wunderground v.1.15,2013-05-23 07:30:00,
2013-05-23 03:35:00,62.0,59.0,29.74,SW,234,6.0,6.0,90,0.00,,,0.00,Wunderground v.1.15,2013-05-23 07:35:00,
2013-05-23 03:45:00,62.0,59.0,29.74,WSW,238,5.0,5.0,90,0.00,,,0.00,Wunderground v.1.15,2013-05-23 07:45:00,
2013-05-23 03:50:00,61.8,58.8,29.74,WSW,245,5.0,7.0,90,0.00,,,0.00,Wunderground v.1.15,2013-05-23 07:50:00,
2013-05-23 03:55:00,61.7,58.4,29.74,WSW,240,5.0,5.0,89,0.00,,,0.00,Wunderground v.1.15,2013-05-23 07:55:00,
2013-05-23 04:00:00,61.5,58.2,29.74,WSW,244,5.0,5.0,89,0.00,,,0.00,Wunderground v.1.15,2013-05-23 08:00:00,
2013-05-23 04:10:00,61.1,58.1,29.75,WSW,242,6.0,7.0,90,0.00,,,0.00,Wunderground v.1.15,2013-05-23 08:10:00,
2013-05-23 04:20:00,61.0,58.0,29.75,WSW,238,7.0,8.0,90,0.00,,,0.00,Wunderground v.1.15,2013-05-23 08:20:00,
2013-05-23 04:25:00,61.1,58.1,29.75,WSW,241,8.0,9.0,90,0.00,,,0.00,Wunderground v.1.15,2013-05-23 08:25:00,
2013-05-23 04:35:00,61.0,58.0,29.76,SW,235,7.0,9.0,90,0.00,,,0.00,Wunderground v.1.15,2013-05-23 08:35:00,
2013-05-23 04:40:00,61.0,58.0,29.75,WSW,240,7.0,7.0,90,0.00,,,0.00,Wunderground v.1.15,2013-05-23 08:40:00,
2013-05-23 04:45:00,61.0,58.0,29.75,WSW,238,7.0,7.0,90,0.00,,,0.00,Wunderground v.1.15,2013-05-23 08:45:00,
2013-05-23 04:50:00,60.9,57.9,29.76,WSW,252,7.0,7.0,90,0.00,,,0.00,Wunderground v.1.15,2013-05-23 08:50:00,
2013-05-23 05:01:00,60.8,57.8,29.76,WSW,244,6.0,7.0,90,0.00,,,0.00,Wunderground v.1.15,2013-05-23 09:01:00,
2013-05-23 05:10:00,61.0,58.0,29.76,WSW,251,7.0,7.0,90,0.00,,,0.00,Wunderground v.1.15,2013-05-23 09:10:00,
2013-05-23 05:15:00,61.1,58.1,29.76,WSW,246,6.0,7.0,90,0.00,,,0.00,Wunderground v.1.15,2013-05-23 09:15:00,
2013-05-23 05:20:00,61.1,58.1,29.76,WSW,248,6.0,6.0,90,0.00,,,0.00,Wunderground v.1.15,2013-05-23 09:20:00,
2013-05-23 05:25:00,61.1,57.8,29.76,WSW,250,6.0,8.0,89,0.00,,,0.00,Wunderground v.1.15,2013-05-23 09:25:00,
2013-05-23 05:35:00,61.2,57.9,29.76,WSW,258,6.0,6.0,89,0.00,,,0.00,Wunderground v.1.15,2013-05-23 09:35:00,
2013-05-23 05:40:00,61.2,57.9,29.76,WSW,258,6.0,6.0,89,0.00,,,0.00,Wunderground v.1.15,2013-05-23 09:40:00,
2013-05-23 05:50:00,61.2,58.2,29.77,WSW,254,6.0,7.0,90,0.00,,,0.00,Wunderground v.1.15,2013-05-23 09:50:00,
2013-05-23 05:55:00,61.2,58.2,29.77,WSW,242,7.0,7.0,90,0.00,,,0.00,Wunderground v.1.15,2013-05-23 09:55:00,
2013-05-23 06:01:00,61.3,58.0,29.77,WSW,242,7.0,9.0,89,0.00,,,0.00,Wunderground v.1.15,2013-05-23 10:01:00,
2013-05-23 06:10:00,61.3,58.0,29.77,WSW,250,8.0,9.0,89,0.00,,,0.00,Wunderground v.1.15,2013-05-23 10:10:00,
2013-05-23 06:15:00,61.3,57.7,29.77,WSW,248,8.0,9.0,88,0.00,,,0.00,Wunderground v.1.15,2013-05-23 10:15:00,
2013-05-23 06:25:00,61.2,57.6,29.78,WSW,254,8.0,8.0,88,0.00,,,0.00,Wunderground v.1.15,2013-05-23 10:25:00,
2013-05-23 06:30:00,61.1,57.2,29.78,WSW,252,8.0,8.0,87,0.00,,,0.00,Wunderground v.1.15,2013-05-23 10:30:00,
2013-05-23 06:35:00,61.1,57.2,29.78,WSW,256,8.0,8.0,87,0.00,,,0.00,Wunderground v.1.15,2013-05-23 10:35:00,
2013-05-23 06:40:00,61.0,57.4,29.78,WSW,246,8.0,9.0,88,0.00,,,0.00,Wunderground v.1.15,2013-05-23 10:40:00,
2013-05-23 06:50:00,60.9,57.0,29.78,WSW,250,8.0,10.0,87,0.00,,,0.00,Wunderground v.1.15,2013-05-23 10:50:00,
2013-05-23 06:55:00,60.9,57.3,29.78,West,260,8.0,10.0,88,0.00,,,0.00,Wunderground v.1.15,2013-05-23 10:55:00,
2013-05-23 07:00:00,60.8,57.2,29.78,WSW,254,8.0,8.0,88,0.00,,,0.00,Wunderground v.1.15,2013-05-23 11:00:00,
2013-05-23 07:10:00,60.9,57.3,29.79,WSW,252,8.0,8.0,88,0.00,,,0.00,Wunderground v.1.15,2013-05-23 11:10:00,
2013-05-23 07:15:00,60.9,57.0,29.79,WSW,251,8.0,8.0,87,0.00,,,0.00,Wunderground v.1.15,2013-05-23 11:15:00,
2013-05-23 07:20:00,61.0,57.1,29.79,WSW,244,8.0,8.0,87,0.00,,,0.00,Wunderground v.1.15,2013-05-23 11:20:00,
2013-05-23 07:30:00,61.1,57.2,29.79,WSW,251,8.0,8.0,87,0.00,,,0.00,Wunderground v.1.15,2013-05-23 11:30:00,
2013-05-23 07:35:00,61.1,57.2,29.80,WSW,251,8.0,8.0,87,0.00,,,0.00,Wunderground v.1.15,2013-05-23 11:35:00,
2013-05-23 07:40:00,61.2,57.3,29.80,WSW,249,7.0,7.0,87,0.00,,,0.00,Wunderground v.1.15,2013-05-23 11:40:00,
2013-05-23 07:50:00,61.3,57.4,29.80,WSW,240,9.0,10.0,87,0.00,,,0.00,Wunderground v.1.15,2013-05-23 11:50:00,
2013-05-23 07:55:00,61.3,57.1,29.80,WSW,253,10.0,10.0,86,0.00,,,0.00,Wunderground v.1.15,2013-05-23 11:55:00,
2013-05-23 08:00:00,61.4,57.5,29.80,West,267,10.0,10.0,87,0.00,,,0.00,Wunderground v.1.15,2013-05-23 12:00:00,
2013-05-23 08:10:00,61.4,57.2,29.80,WSW,246,10.0,11.0,86,0.00,,,0.00,Wunderground v.1.15,2013-05-23 12:10:00,
2013-05-23 08:20:00,61.5,56.9,29.81,WSW,248,10.0,11.0,85,0.00,,,0.00,Wunderground v.1.15,2013-05-23 12:20:00,
2013-05-23 08:25:00,61.5,56.9,29.81,West,259,10.0,11.0,85,0.00,,,0.00,Wunderground v.1.15,2013-05-23 12:25:00,
2013-05-23 08:35:00,61.8,57.6,29.81,WSW,254,10.0,11.0,86,0.00,,,0.00,Wunderground v.1.15,2013-05-23 12:35:00,
2013-05-23 08:40:00,62.1,57.5,29.81,WSW,254,10.0,12.0,85,0.00,,,0.00,Wunderground v.1.15,2013-05-23 12:40:00,
2013-05-23 08:45:00,62.6,57.7,29.81,West,262,11.0,12.0,84,0.00,,,0.00,Wunderground v.1.15,2013-05-23 12:45:00,
2013-05-23 08:50:00,62.9,57.7,29.81,West,263,11.0,11.0,83,0.00,,,0.00,Wunderground v.1.15,2013-05-23 12:50:00,
2013-05-23 09:00:00,62.8,57.6,29.81,West,269,11.0,11.0,83,0.00,,,0.00,Wunderground v.1.15,2013-05-23 13:00:00,
2013-05-23 09:10:00,62.7,57.5,29.81,West,271,11.0,12.0,83,0.00,,,0.00,Wunderground v.1.15,2013-05-23 13:10:00,
2013-05-23 09:15:00,62.6,57.4,29.81,WSW,252,11.0,12.0,83,0.00,,,0.00,Wunderground v.1.15,2013-05-23 13:15:00,
2013-05-23 09:20:00,62.7,57.5,29.81,WSW,258,11.0,11.0,83,0.00,,,0.00,Wunderground v.1.15,2013-05-23 13:20:00,
2013-05-23 09:25:00,62.9,57.7,29.81,West,259,10.0,11.0,83,0.00,,,0.00,Wunderground v.1.15,2013-05-23 13:25:00,
2013-05-23 09:35:00,63.1,57.9,29.82,West,259,11.0,12.0,83,0.00,,,0.00,Wunderground v.1.15,2013-05-23 13:35:00,
2013-05-23 09:40:00,63.0,57.4,29.82,West,259,11.0,11.0,82,0.00,,,0.00,Wunderground v.1.15,2013-05-23 13:40:00,
2013-05-23 09:45:00,63.1,57.9,29.82,WSW,245,11.0,12.0,83,0.00,,,0.00,Wunderground v.1.15,2013-05-23 13:45:00,
2013-05-23 09:50:00,63.2,57.6,29.82,West,263,12.0,12.0,82,0.00,,,0.00,Wunderground v.1.15,2013-05-23 13:50:00,
2013-05-23 10:00:00,63.4,57.8,29.82,WSW,246,11.0,12.0,82,0.00,,,0.00,Wunderground v.1.15,2013-05-23 14:00:00,
2013-05-23 10:10:00,63.1,57.5,29.82,WSW,257,14.0,14.0,82,0.00,,,0.00,Wunderground v.1.15,2013-05-23 14:10:00,
2013-05-23 10:20:00,63.3,57.7,29.82,WSW,250,13.0,13.0,82,0.00,,,0.00,Wunderground v.1.15,2013-05-23 14:20:00,
2013-05-23 10:25:00,63.5,57.9,29.82,West,265,13.0,13.0,82,0.00,,,0.00,Wunderground v.1.15,2013-05-23 14:25:00,
2013-05-23 10:35:00,63.8,57.9,29.82,WSW,248,13.0,14.0,81,0.00,,,0.00,Wunderground v.1.15,2013-05-23 14:35:00,
2013-05-23 10:40:00,63.6,57.7,29.82,WSW,254,15.0,19.0,81,0.00,,,0.00,Wunderground v.1.15,2013-05-23 14:40:00,
2013-05-23 10:45:00,62.5,57.9,29.83,WSW,252,15.0,19.0,85,0.00,,,0.00,Wunderground v.1.15,2013-05-23 14:45:00,
2013-05-23 10:55:00,61.2,58.6,29.83,WSW,253,12.0,15.0,91,0.00,,,0.01,Wunderground v.1.15,2013-05-23 14:55:00,
2013-05-23 11:01:00,61.3,58.7,29.83,West,272,11.0,11.0,91,0.00,,,0.01,Wunderground v.1.15,2013-05-23 15:01:00,
2013-05-23 11:10:00,61.6,58.3,29.83,WSW,255,11.0,13.0,89,0.00,,,0.01,Wunderground v.1.15,2013-05-23 15:10:00,
2013-05-23 11:15:00,61.7,58.1,29.83,WSW,244,13.0,13.0,88,0.00,,,0.01,Wunderground v.1.15,2013-05-23 15:15:00,
2013-05-23 11:20:00,61.9,58.6,29.83,WSW,255,12.0,12.0,89,0.00,,,0.01,Wunderground v.1.15,2013-05-23 15:20:00,
2013-05-23 11:25:00,62.0,58.7,29.83,West,269,11.0,12.0,89,0.00,,,0.01,Wunderground v.1.15,2013-05-23 15:25:00,
2013-05-23 11:35:00,61.9,58.6,29.83,West,264,10.0,11.0,89,0.24,,,0.02,Wunderground v.1.15,2013-05-23 15:35:00,
2013-05-23 11:40:00,61.1,58.1,29.83,West,275,11.0,14.0,90,0.26,,,0.05,Wunderground v.1.15,2013-05-23 15:40:00,
2013-05-23 11:45:00,60.3,57.7,29.83,West,263,12.0,14.0,91,0.19,,,0.06,Wunderground v.1.15,2013-05-23 15:45:00,
2013-05-23 11:50:00,60.1,57.5,29.84,West,270,12.0,16.0,91,0.14,,,0.07,Wunderground v.1.15,2013-05-23 15:50:00,
2013-05-23 12:00:00,60.4,58.1,29.84,West,264,12.0,12.0,92,0.04,,,0.07,Wunderground v.1.15,2013-05-23 16:00:00,
2013-05-23 12:10:00,61.1,58.5,29.84,West,263,11.0,11.0,91,0.00,,,0.07,Wunderground v.1.15,2013-05-23 16:10:00,
2013-05-23 12:15:00,61.4,58.4,29.84,West,278,11.0,11.0,90,0.00,,,0.07,Wunderground v.1.15,2013-05-23 16:15:00,
2013-05-23 12:20:00,61.9,58.6,29.84,WNW,293,11.0,14.0,89,0.00,,,0.07,Wunderground v.1.15,2013-05-23 16:20:00,
2013-05-23 12:30:00,61.5,57.9,29.84,WNW,288,13.0,13.0,88,0.00,,,0.07,Wunderground v.1.15,2013-05-23 16:30:00,
2013-05-23 12:35:00,61.9,58.6,29.85,West,281,12.0,13.0,89,0.00,,,0.07,Wunderground v.1.15,2013-05-23 16:35:00,
2013-05-23 12:45:00,62.1,58.8,29.85,West,263,11.0,13.0,89,0.00,,,0.07,Wunderground v.1.15,2013-05-23 16:45:00,
2013-05-23 12:50:00,62.2,57.6,29.85,West,279,12.0,12.0,85,0.00,,,0.07,Wunderground v.1.15,2013-05-23 16:50:00,
2013-05-23 12:55:00,61.7,56.8,29.85,WNW,295,13.0,13.0,84,0.00,,,0.07,Wunderground v.1.15,2013-05-23 16:55:00,
2013-05-23 13:01:00,61.3,56.8,29.85,West,277,13.0,13.0,85,0.00,,,0.07,Wunderground v.1.15,2013-05-23 17:01:00,
2013-05-23 13:10:00,60.8,56.9,29.86,WNW,284,13.0,13.0,87,0.00,,,0.07,Wunderground v.1.15,2013-05-23 17:10:00,
2013-05-23 13:15:00,60.9,56.0,29.86,WNW,301,14.0,14.0,84,0.00,,,0.07,Wunderground v.1.15,2013-05-23 17:15:00,
2013-05-23 13:20:00,60.9,56.4,29.86,West,281,13.0,13.0,85,0.00,,,0.07,Wunderground v.1.15,2013-05-23 17:20:00,
2013-05-23 13:25:00,61.0,56.5,29.86,West,265,11.0,13.0,85,0.00,,,0.07,Wunderground v.1.15,2013-05-23 17:25:00,
2013-05-23 13:35:00,60.6,56.4,29.86,West,277,10.0,10.0,86,0.00,,,0.07,Wunderground v.1.15,2013-05-23 17:35:00,
2013-05-23 13:40:00,61.0,56.1,29.86,WNW,286,11.0,11.0,84,0.00,,,0.07,Wunderground v.1.15,2013-05-23 17:40:00,
2013-05-23 13:45:00,61.3,56.4,29.86,WNW,286,12.0,13.0,84,0.00,,,0.07,Wunderground v.1.15,2013-05-23 17:45:00,
2013-05-23 13:50:00,61.2,56.0,29.86,WNW,288,13.0,13.0,83,0.00,,,0.07,Wunderground v.1.15,2013-05-23 17:50:00,
2013-05-23 14:00:00,60.6,55.1,29.86,WNW,292,13.0,13.0,82,0.00,,,0.07,Wunderground v.1.15,2013-05-23 18:00:00,
2013-05-23 14:10:00,60.0,55.5,29.87,WNW,286,13.0,13.0,85,0.00,,,0.07,Wunderground v.1.15,2013-05-23 18:10:00,
2013-05-23 14:15:00,60.0,55.5,29.87,WNW,286,12.0,15.0,85,0.00,,,0.07,Wunderground v.1.15,2013-05-23 18:15:00,
2013-05-23 14:25:00,59.8,54.3,29.87,West,281,13.0,13.0,82,0.00,,,0.07,Wunderground v.1.15,2013-05-23 18:25:00,
2013-05-23 14:30:00,59.5,54.3,29.87,WNW,299,13.0,13.0,83,0.00,,,0.07,Wunderground v.1.15,2013-05-23 18:30:00,
2013-05-23 14:35:00,59.5,53.3,29.88,NW,323,13.0,13.0,80,0.00,,,0.07,Wunderground v.1.15,2013-05-23 18:35:00,
2013-05-23 14:45:00,58.0,52.9,29.88,WNW,302,12.0,15.0,83,0.00,,,0.07,Wunderground v.1.15,2013-05-23 18:45:00,
2013-05-23 14:50:00,56.9,52.1,29.88,NW,325,14.0,15.0,84,0.00,,,0.07,Wunderground v.1.15,2013-05-23 18:50:00,
2013-05-23 14:55:00,56.3,51.8,29.89,WNW,284,13.0,15.0,85,0.00,,,0.07,Wunderground v.1.15,2013-05-23 18:55:00,
2013-05-23 15:05:00,55.9,51.5,29.89,NW,307,11.0,14.0,85,0.00,,,0.07,Wunderground v.1.15,2013-05-23 19:05:00,
2013-05-23 15:10:00,55.7,51.3,29.90,NNW,331,10.0,14.0,85,0.00,,,0.07,Wunderground v.1.15,2013-05-23 19:10:00,
2013-05-23 15:15:00,55.7,51.3,29.90,West,274,10.0,12.0,85,0.00,,,0.07,Wunderground v.1.15,2013-05-23 19:15:00,
2013-05-23 15:20:00,55.9,51.8,29.90,WNW,291,10.0,12.0,86,0.00,,,0.07,Wunderground v.1.15,2013-05-23 19:20:00,
2013-05-23 15:30:00,55.6,51.2,29.90,WNW,293,10.0,13.0,85,0.00,,,0.07,Wunderground v.1.15,2013-05-23 19:30:00,
2013-05-23 15:35:00,55.7,51.6,29.90,NW,316,10.0,10.0,86,0.00,,,0.07,Wunderground v.1.15,2013-05-23 19:35:00,
2013-05-23 15:40:00,55.7,51.3,29.90,NW,306,10.0,10.0,85,0.00,,,0.07,Wunderground v.1.15,2013-05-23 19:40:00,
2013-05-23 15:45:00,55.8,51.7,29.91,NW,307,8.0,10.0,86,0.00,,,0.07,Wunderground v.1.15,2013-05-23 19:45:00,
2013-05-23 15:50:00,55.9,51.5,29.92,NW,325,8.0,10.0,85,0.00,,,0.07,Wunderground v.1.15,2013-05-23 19:50:00,
2013-05-23 16:00:00,55.6,51.5,29.92,WNW,294,10.0,10.0,86,0.00,,,0.07,Wunderground v.1.15,2013-05-23 20:00:00,
2013-05-23 16:10:00,55.2,51.1,29.93,WNW,294,9.0,9.0,86,0.00,,,0.07,Wunderground v.1.15,2013-05-23 20:10:00,
2013-05-23 16:15:00,55.0,50.9,29.93,NW,306,10.0,10.0,86,0.00,,,0.07,Wunderground v.1.15,2013-05-23 20:15:00,
2013-05-23 16:20:00,55.1,51.3,29.94,West,268,9.0,11.0,87,0.00,,,0.07,Wunderground v.1.15,2013-05-23 20:20:00,
2013-05-23 16:30:00,55.3,51.5,29.94,WNW,299,9.0,11.0,87,0.00,,,0.07,Wunderground v.1.15,2013-05-23 20:30:00,
2013-05-23 16:35:00,55.3,51.5,29.95,WNW,283,9.0,12.0,87,0.00,,,0.07,Wunderground v.1.15,2013-05-23 20:35:00,
2013-05-23 16:40:00,55.3,51.8,29.95,WNW,298,10.0,15.0,88,0.00,,,0.07,Wunderground v.1.15,2013-05-23 20:40:00,
2013-05-23 16:50:00,55.5,52.3,29.95,WNW,290,9.0,10.0,89,0.00,,,0.07,Wunderground v.1.15,2013-05-23 20:50:00,
2013-05-23 16:55:00,55.5,52.3,29.95,WNW,300,8.0,10.0,89,0.00,,,0.07,Wunderground v.1.15,2013-05-23 20:55:00,
2013-05-23 17:05:00,55.2,52.6,29.95,NNW,331,6.0,6.0,91,0.00,,,0.07,Wunderground v.1.15,2013-05-23 21:05:00,
2013-05-23 17:10:00,55.1,52.8,29.95,NNW,335,6.0,6.0,92,0.00,,,0.08,Wunderground v.1.15,2013-05-23 21:10:00,
2013-05-23 17:15:00,55.2,53.2,29.96,North,355,7.0,10.0,93,0.00,,,0.08,Wunderground v.1.15,2013-05-23 21:15:00,
2013-05-23 17:20:00,55.5,52.6,29.96,North,355,10.0,10.0,90,0.00,,,0.08,Wunderground v.1.15,2013-05-23 21:20:00,
2013-05-23 17:25:00,55.6,52.7,29.97,North,9,11.0,11.0,90,0.00,,,0.08,Wunderground v.1.15,2013-05-23 21:25:00,
2013-05-23 17:30:00,55.8,52.9,29.97,North,5,9.0,12.0,90,0.00,,,0.08,Wunderground v.1.15,2013-05-23 21:30:00,
2013-05-23 17:40:00,55.8,52.9,29.98,North,5,9.0,9.0,90,0.00,,,0.08,Wunderground v.1.15,2013-05-23 21:40:00,
2013-05-23 17:45:00,55.8,52.6,29.98,North,5,10.0,18.0,89,0.00,,,0.08,Wunderground v.1.15,2013-05-23 21:45:00,
2013-05-23 17:50:00,55.4,52.2,29.98,NNW,340,12.0,18.0,89,0.00,,,0.08,Wunderground v.1.15,2013-05-23 21:50:00,
2013-05-23 18:00:00,55.0,51.5,29.98,North,5,13.0,13.0,88,0.00,,,0.08,Wunderground v.1.15,2013-05-23 22:00:00,
2013-05-23 18:10:00,55.2,51.1,29.99,North,5,13.0,13.0,86,0.00,,,0.08,Wunderground v.1.15,2013-05-23 22:10:00,
2013-05-23 18:20:00,55.2,50.8,29.99,North,355,14.0,14.0,85,0.00,,,0.08,Wunderground v.1.15,2013-05-23 22:20:00,
2013-05-23 18:25:00,55.0,50.3,30.00,North,349,14.0,14.0,84,0.00,,,0.08,Wunderground v.1.15,2013-05-23 22:25:00,
2013-05-23 18:30:00,55.0,50.6,30.00,North,5,12.0,13.0,85,0.00,,,0.08,Wunderground v.1.15,2013-05-23 22:30:00,
2013-05-23 18:35:00,55.0,50.6,30.00,NNW,336,11.0,13.0,85,0.00,,,0.08,Wunderground v.1.15,2013-05-23 22:35:00,
2013-05-23 18:40:00,54.8,50.1,30.00,NNW,347,12.0,12.0,84,0.00,,,0.08,Wunderground v.1.15,2013-05-23 22:40:00,
2013-05-23 18:50:00,54.4,50.0,30.00,North,5,14.0,14.0,85,0.00,,,0.08,Wunderground v.1.15,2013-05-23 22:50:00,
2013-05-23 18:55:00,54.3,49.9,30.01,North,355,14.0,14.0,85,0.00,,,0.08,Wunderground v.1.15,2013-05-23 22:55:00,
2013-05-23 19:05:00,54.5,50.1,30.02,North,5,12.0,12.0,85,0.00,,,0.08,Wunderground v.1.15,2013-05-23 23:05:00,
2013-05-23 19:10:00,54.6,49.5,30.02,North,5,12.0,12.0,83,0.00,,,0.08,Wunderground v.1.15,2013-05-23 23:10:00,
2013-05-23 19:15:00,54.8,50.1,30.03,North,355,13.0,13.0,84,0.00,,,0.08,Wunderground v.1.15,2013-05-23 23:15:00,
2013-05-23 19:25:00,55.2,50.4,30.03,NNE,14,12.0,12.0,84,0.00,,,0.08,Wunderground v.1.15,2013-05-23 23:25:00,
2013-05-23 19:30:00,55.5,50.7,30.03,North,9,10.0,12.0,84,0.00,,,0.08,Wunderground v.1.15,2013-05-23 23:30:00,
2013-05-23 19:35:00,55.7,50.0,30.03,North,355,11.0,14.0,81,0.00,,,0.08,Wunderground v.1.15,2013-05-23 23:35:00,
2013-05-23 19:40:00,55.6,50.2,30.03,North,360,11.0,14.0,82,0.00,,,0.08,Wunderground v.1.15,2013-05-23 23:40:00,
2013-05-23 19:50:00,55.4,50.0,30.04,North,355,10.0,10.0,82,0.00,,,0.08,Wunderground v.1.15,2013-05-23 23:50:00,
2013-05-23 19:55:00,55.3,49.2,30.05,NNW,335,11.0,11.0,80,0.00,,,0.08,Wunderground v.1.15,2013-05-23 23:55:00,
2013-05-23 20:01:00,55.1,49.4,30.05,NNW,337,11.0,15.0,81,0.00,,,0.08,Wunderground v.1.15,2013-05-24 00:01:00,
2013-05-23 20:10:00,54.9,49.5,30.06,North,360,11.0,15.0,82,0.00,,,0.08,Wunderground v.1.15,2013-05-24 00:10:00,
2013-05-23 20:15:00,54.9,48.8,30.06,North,351,11.0,11.0,80,0.00,,,0.08,Wunderground v.1.15,2013-05-24 00:15:00,
2013-05-23 20:20:00,54.6,48.2,30.06,North,360,13.0,15.0,79,0.00,,,0.08,Wunderground v.1.15,2013-05-24 00:20:00,
2013-05-23 20:30:00,54.3,48.6,30.07,North,355,12.0,14.0,81,0.00,,,0.08,Wunderground v.1.15,2013-05-24 00:30:00,
2013-05-23 20:35:00,54.2,48.5,30.07,North,350,10.0,10.0,81,0.00,,,0.08,Wunderground v.1.15,2013-05-24 00:35:00,
2013-05-23 20:45:00,54.0,48.0,30.07,North,355,13.0,14.0,80,0.00,,,0.08,Wunderground v.1.15,2013-05-24 00:45:00,
2013-05-23 20:50:00,53.9,47.9,30.08,North,355,13.0,14.0,80,0.00,,,0.08,Wunderground v.1.15,2013-05-24 00:50:00,
2013-05-23 20:55:00,53.8,47.8,30.08,North,11,12.0,13.0,80,0.00,,,0.08,Wunderground v.1.15,2013-05-24 00:55:00,
2013-05-23 21:00:00,53.7,47.0,30.08,North,9,12.0,12.0,78,0.00,,,0.08,Wunderground v.1.15,2013-05-24 01:00:00,
2013-05-23 21:10:00,53.3,46.6,30.09,NNE,14,13.0,13.0,78,0.00,,,0.08,Wunderground v.1.15,2013-05-24 01:10:00,
2013-05-23 21:20:00,53.2,46.5,30.09,NNE,26,9.0,9.0,78,0.00,,,0.08,Wunderground v.1.15,2013-05-24 01:20:00,
2013-05-23 21:25:00,53.1,46.8,30.09,NNE,17,8.0,9.0,79,0.00,,,0.08,Wunderground v.1.15,2013-05-24 01:25:00,
2013-05-23 21:30:00,53.0,46.7,30.10,North,11,8.0,8.0,79,0.00,,,0.08,Wunderground v.1.15,2013-05-24 01:30:00,
2013-05-23 21:35:00,53.0,46.7,30.10,North,5,9.0,9.0,79,0.00,,,0.08,Wunderground v.1.15,2013-05-24 01:35:00,
2013-05-23 21:40:00,52.9,46.6,30.10,North,10,8.0,8.0,79,0.00,,,0.08,Wunderground v.1.15,2013-05-24 01:40:00,
2013-05-23 21:50:00,52.8,46.8,30.11,North,11,6.0,6.0,80,0.00,,,0.08,Wunderground v.1.15,2013-05-24 01:50:00,
2013-05-23 21:55:00,52.8,46.8,30.11,NNE,13,5.0,6.0,80,0.00,,,0.08,Wunderground v.1.15,2013-05-24 01:55:00,
2013-05-23 22:05:00,52.7,47.0,30.11,NNE,12,5.0,5.0,81,0.00,,,0.08,Wunderground v.1.15,2013-05-24 02:05:00,
2013-05-23 22:10:00,52.8,47.1,30.11,North,360,6.0,6.0,81,0.00,,,0.08,Wunderground v.1.15,2013-05-24 02:10:00,
2013-05-23 22:15:00,52.8,47.1,30.12,North,360,5.0,5.0,81,0.00,,,0.08,Wunderground v.1.15,2013-05-24 02:15:00,
2013-05-23 22:25:00,52.8,47.1,30.13,North,355,5.0,6.0,81,0.00,,,0.08,Wunderground v.1.15,2013-05-24 02:25:00,
2013-05-23 22:30:00,52.8,47.5,30.13,North,355,5.0,6.0,82,0.00,,,0.08,Wunderground v.1.15,2013-05-24 02:30:00,
2013-05-23 22:35:00,52.8,47.5,30.13,NNW,347,4.0,4.0,82,0.00,,,0.08,Wunderground v.1.15,2013-05-24 02:35:00,
2013-05-23 22:45:00,52.9,47.2,30.14,NNW,340,5.0,5.0,81,0.00,,,0.08,Wunderground v.1.15,2013-05-24 02:45:00,
2013-05-23 22:50:00,52.9,47.6,30.14,NNW,338,4.0,5.0,82,0.00,,,0.08,Wunderground v.1.15,2013-05-24 02:50:00,
2013-05-23 22:55:00,52.7,48.0,30.14,NW,324,4.0,4.0,84,0.00,,,0.08,Wunderground v.1.15,2013-05-24 02:55:00,
2013-05-23 23:00:00,52.4,48.3,30.14,NNW,335,6.0,6.0,86,0.00,,,0.08,Wunderground v.1.15,2013-05-24 03:00:00,
2013-05-23 23:10:00,52.0,48.6,30.14,NNW,347,6.0,9.0,88,0.00,,,0.08,Wunderground v.1.15,2013-05-24 03:10:00,
2013-05-23 23:15:00,51.8,48.7,30.14,NW,325,6.0,9.0,89,0.00,,,0.08,Wunderground v.1.15,2013-05-24 03:15:00,
2013-05-23 23:25:00,50.9,48.4,30.14,NNW,346,7.0,8.0,91,0.00,,,0.09,Wunderground v.1.15,2013-05-24 03:25:00,
2013-05-23 23:30:00,50.7,48.5,30.15,NW,324,7.0,7.0,92,0.00,,,0.09,Wunderground v.1.15,2013-05-24 03:30:00,
2013-05-23 23:35:00,50.5,48.3,30.15,NW,320,6.0,7.0,92,0.04,,,0.10,Wunderground v.1.15,2013-05-24 03:35:00,
2013-05-23 23:40:00,50.5,48.6,30.15,NNW,327,6.0,6.0,93,0.12,,,0.11,Wunderground v.1.15,2013-05-24 03:40:00,
2013-05-23 23:45:00,50.4,48.5,30.15,NNW,334,5.0,6.0,93,0.06,,,0.11,Wunderground v.1.15,2013-05-24 03:45:00,
2013-05-23 23:55:00,50.4,48.5,30.15,NNW,338,6.0,6.0,93,0.14,,,0.13,Wunderground v.1.15,2013-05-24 03:55:00,